sensor_id;sensor_type;location;lat;lon;timestamp;P1;durP1;ratioP1;P2;durP2;ratioP2
40871;SDS011;26591;43.264;26.940;2024-01-15T00:01:07;7.43;;;4.70;;
40871;SDS011;26591;43.264;26.940;2024-01-15T00:03:32;10.38;;;5.18;;
40871;SDS011;26591;43.264;26.940;2024-01-15T00:05:58;9.13;;;5.15;;
40871;SDS011;26591;43.264;26.940;2024-01-15T00:08:23;14.02;;;5.10;;
40871;SDS011;26591;43.264;26.940;2024-01-15T00:10:49;10.88;;;4.90;;
40871;SDS011;26591;43.264;26.940;2024-01-15T00:13:14;16.00;;;7.20;;
40871;SDS011;26591;43.264;26.940;2024-01-15T00:15:44;12.90;;;6.65;;
40871;SDS011;26591;43.264;26.940;2024-01-15T00:18:22;7.68;;;4.85;;
40871;SDS011;26591;43.264;26.940;2024-01-15T00:20:48;9.10;;;4.85;;
40871;SDS011;26591;43.264;26.940;2024-01-15T00:23:13;10.98;;;5.03;;
40871;SDS011;26591;43.264;26.940;2024-01-15T00:25:39;9.10;;;5.25;;
40871;SDS011;26591;43.264;26.940;2024-01-15T00:28:06;11.65;;;5.40;;
40871;SDS011;26591;43.264;26.940;2024-01-15T00:30:31;10.43;;;5.15;;
40871;SDS011;26591;43.264;26.940;2024-01-15T00:32:57;7.50;;;4.47;;
40871;SDS011;26591;43.264;26.940;2024-01-15T00:35:22;11.02;;;4.53;;
40871;SDS011;26591;43.264;26.940;2024-01-15T00:37:47;7.32;;;4.57;;
40871;SDS011;26591;43.264;26.940;2024-01-15T00:40:13;5.95;;;3.88;;
40871;SDS011;26591;43.264;26.940;2024-01-15T00:42:38;8.25;;;4.80;;
40871;SDS011;26591;43.264;26.940;2024-01-15T00:45:04;7.75;;;4.43;;
40871;SDS011;26591;43.264;26.940;2024-01-15T00:47:31;9.95;;;4.57;;
40871;SDS011;26591;43.264;26.940;2024-01-15T00:49:57;7.80;;;4.45;;
40871;SDS011;26591;43.264;26.940;2024-01-15T00:52:22;6.80;;;3.92;;
40871;SDS011;26591;43.264;26.940;2024-01-15T00:54:48;6.28;;;3.67;;
40871;SDS011;26591;43.264;26.940;2024-01-15T00:57:13;8.43;;;4.28;;
40871;SDS011;26591;43.264;26.940;2024-01-15T00:59:39;9.40;;;3.83;;
40871;SDS011;26591;43.264;26.940;2024-01-15T01:02:05;6.63;;;4.00;;
40871;SDS011;26591;43.264;26.940;2024-01-15T01:04:31;6.00;;;3.65;;
40871;SDS011;26591;43.264;26.940;2024-01-15T01:06:59;7.25;;;4.18;;
40871;SDS011;26591;43.264;26.940;2024-01-15T01:09:24;11.27;;;5.57;;
40871;SDS011;26591;43.264;26.940;2024-01-15T01:11:50;9.90;;;4.70;;
40871;SDS011;26591;43.264;26.940;2024-01-15T01:14:15;21.92;;;9.00;;
40871;SDS011;26591;43.264;26.940;2024-01-15T01:16:41;32.92;;;12.48;;
40871;SDS011;26591;43.264;26.940;2024-01-15T01:22:12;11.80;;;5.55;;
40871;SDS011;26591;43.264;26.940;2024-01-15T01:24:38;9.15;;;4.68;;
40871;SDS011;26591;43.264;26.940;2024-01-15T01:27:03;45.67;;;18.25;;
40871;SDS011;26591;43.264;26.940;2024-01-15T01:29:29;75.15;;;28.80;;
40871;SDS011;26591;43.264;26.940;2024-01-15T01:31:54;22.98;;;9.48;;
40871;SDS011;26591;43.264;26.940;2024-01-15T01:34:21;16.45;;;6.18;;
40871;SDS011;26591;43.264;26.940;2024-01-15T01:36:47;11.35;;;4.90;;
40871;SDS011;26591;43.264;26.940;2024-01-15T01:39:13;27.13;;;9.65;;
40871;SDS011;26591;43.264;26.940;2024-01-15T01:41:38;14.68;;;6.70;;
40871;SDS011;26591;43.264;26.940;2024-01-15T01:44:04;18.08;;;6.80;;
40871;SDS011;26591;43.264;26.940;2024-01-15T01:46:32;18.15;;;8.60;;
40871;SDS011;26591;43.264;26.940;2024-01-15T01:48:58;14.75;;;7.40;;
40871;SDS011;26591;43.264;26.940;2024-01-15T01:51:28;18.65;;;7.43;;
40871;SDS011;26591;43.264;26.940;2024-01-15T01:53:54;14.45;;;7.25;;
40871;SDS011;26591;43.264;26.940;2024-01-15T01:56:22;16.95;;;8.10;;
40871;SDS011;26591;43.264;26.940;2024-01-15T01:58:48;19.85;;;9.30;;
40871;SDS011;26591;43.264;26.940;2024-01-15T02:01:14;13.05;;;7.32;;
40871;SDS011;26591;43.264;26.940;2024-01-15T02:03:40;15.32;;;6.53;;
40871;SDS011;26591;43.264;26.940;2024-01-15T02:06:06;11.98;;;5.43;;
40871;SDS011;26591;43.264;26.940;2024-01-15T02:08:32;11.73;;;5.85;;
40871;SDS011;26591;43.264;26.940;2024-01-15T02:10:57;10.65;;;4.70;;
40871;SDS011;26591;43.264;26.940;2024-01-15T02:13:23;7.32;;;4.30;;
40871;SDS011;26591;43.264;26.940;2024-01-15T02:15:48;9.82;;;5.35;;
40871;SDS011;26591;43.264;26.940;2024-01-15T02:18:14;9.30;;;5.03;;
40871;SDS011;26591;43.264;26.940;2024-01-15T02:20:39;10.05;;;4.90;;
40871;SDS011;26591;43.264;26.940;2024-01-15T02:23:07;7.38;;;4.35;;
40871;SDS011;26591;43.264;26.940;2024-01-15T02:25:45;6.43;;;3.72;;
40871;SDS011;26591;43.264;26.940;2024-01-15T02:28:15;14.02;;;6.30;;
40871;SDS011;26591;43.264;26.940;2024-01-15T02:30:42;9.15;;;5.35;;
40871;SDS011;26591;43.264;26.940;2024-01-15T02:33:08;12.10;;;5.38;;
40871;SDS011;26591;43.264;26.940;2024-01-15T02:35:34;32.20;;;13.10;;
40871;SDS011;26591;43.264;26.940;2024-01-15T02:38:04;28.60;;;12.43;;
40871;SDS011;26591;43.264;26.940;2024-01-15T02:40:30;16.45;;;8.15;;
40871;SDS011;26591;43.264;26.940;2024-01-15T02:42:56;20.02;;;11.10;;
40871;SDS011;26591;43.264;26.940;2024-01-15T02:45:22;14.40;;;6.90;;
40871;SDS011;26591;43.264;26.940;2024-01-15T02:47:50;18.63;;;8.63;;
40871;SDS011;26591;43.264;26.940;2024-01-15T02:50:15;13.27;;;7.72;;
40871;SDS011;26591;43.264;26.940;2024-01-15T02:52:41;21.02;;;10.45;;
40871;SDS011;26591;43.264;26.940;2024-01-15T02:55:07;16.63;;;9.23;;
40871;SDS011;26591;43.264;26.940;2024-01-15T02:57:33;7.88;;;4.85;;
40871;SDS011;26591;43.264;26.940;2024-01-15T02:59:59;7.75;;;3.92;;
40871;SDS011;26591;43.264;26.940;2024-01-15T03:02:24;9.98;;;5.32;;
40871;SDS011;26591;43.264;26.940;2024-01-15T03:04:50;14.77;;;6.80;;
40871;SDS011;26591;43.264;26.940;2024-01-15T03:07:15;13.35;;;7.25;;
40871;SDS011;26591;43.264;26.940;2024-01-15T03:09:41;13.02;;;6.32;;
40871;SDS011;26591;43.264;26.940;2024-01-15T03:12:07;15.55;;;6.57;;
40871;SDS011;26591;43.264;26.940;2024-01-15T03:14:32;14.30;;;6.15;;
40871;SDS011;26591;43.264;26.940;2024-01-15T03:16:58;17.02;;;7.95;;
40871;SDS011;26591;43.264;26.940;2024-01-15T03:19:23;17.00;;;7.13;;
40871;SDS011;26591;43.264;26.940;2024-01-15T03:21:49;11.93;;;6.72;;
40871;SDS011;26591;43.264;26.940;2024-01-15T03:24:14;8.60;;;4.95;;
40871;SDS011;26591;43.264;26.940;2024-01-15T03:29:34;11.70;;;6.05;;
40871;SDS011;26591;43.264;26.940;2024-01-15T03:32:00;13.15;;;6.63;;
40871;SDS011;26591;43.264;26.940;2024-01-15T03:34:25;12.45;;;6.43;;
40871;SDS011;26591;43.264;26.940;2024-01-15T03:36:50;15.25;;;5.40;;
40871;SDS011;26591;43.264;26.940;2024-01-15T03:39:16;11.82;;;6.25;;
40871;SDS011;26591;43.264;26.940;2024-01-15T03:41:44;11.77;;;6.45;;
40871;SDS011;26591;43.264;26.940;2024-01-15T03:44:10;13.48;;;7.05;;
40871;SDS011;26591;43.264;26.940;2024-01-15T03:46:35;9.60;;;6.13;;
40871;SDS011;26591;43.264;26.940;2024-01-15T03:49:01;13.00;;;7.00;;
40871;SDS011;26591;43.264;26.940;2024-01-15T03:51:26;13.90;;;8.30;;
40871;SDS011;26591;43.264;26.940;2024-01-15T03:53:54;19.02;;;10.45;;
40871;SDS011;26591;43.264;26.940;2024-01-15T03:56:19;32.00;;;15.05;;
40871;SDS011;26591;43.264;26.940;2024-01-15T03:58:45;17.65;;;9.25;;
40871;SDS011;26591;43.264;26.940;2024-01-15T04:01:10;19.58;;;9.57;;
40871;SDS011;26591;43.264;26.940;2024-01-15T04:03:36;16.08;;;8.68;;
40871;SDS011;26591;43.264;26.940;2024-01-15T04:06:02;28.38;;;13.45;;
40871;SDS011;26591;43.264;26.940;2024-01-15T04:08:31;17.67;;;9.85;;
40871;SDS011;26591;43.264;26.940;2024-01-15T04:10:56;23.33;;;12.57;;
40871;SDS011;26591;43.264;26.940;2024-01-15T04:13:22;42.05;;;19.90;;
40871;SDS011;26591;43.264;26.940;2024-01-15T04:15:47;24.75;;;13.25;;
40871;SDS011;26591;43.264;26.940;2024-01-15T04:18:13;24.33;;;11.45;;
40871;SDS011;26591;43.264;26.940;2024-01-15T04:23:42;60.15;;;24.50;;
40871;SDS011;26591;43.264;26.940;2024-01-15T04:26:07;19.67;;;10.52;;
40871;SDS011;26591;43.264;26.940;2024-01-15T04:28:33;43.67;;;20.55;;
40871;SDS011;26591;43.264;26.940;2024-01-15T04:33:54;39.63;;;17.65;;
40871;SDS011;26591;43.264;26.940;2024-01-15T04:36:20;19.67;;;11.75;;
40871;SDS011;26591;43.264;26.940;2024-01-15T04:38:45;24.80;;;12.93;;
40871;SDS011;26591;43.264;26.940;2024-01-15T04:41:12;30.45;;;17.13;;
40871;SDS011;26591;43.264;26.940;2024-01-15T04:43:38;29.65;;;17.13;;
40871;SDS011;26591;43.264;26.940;2024-01-15T04:46:05;39.47;;;17.48;;
40871;SDS011;26591;43.264;26.940;2024-01-15T04:48:32;43.13;;;19.98;;
40871;SDS011;26591;43.264;26.940;2024-01-15T04:50:57;61.80;;;24.92;;
40871;SDS011;26591;43.264;26.940;2024-01-15T04:53:23;93.45;;;36.00;;
40871;SDS011;26591;43.264;26.940;2024-01-15T04:55:48;149.75;;;55.47;;
40871;SDS011;26591;43.264;26.940;2024-01-15T04:58:13;118.30;;;46.35;;
40871;SDS011;26591;43.264;26.940;2024-01-15T05:00:39;65.82;;;28.77;;
40871;SDS011;26591;43.264;26.940;2024-01-15T05:03:04;114.38;;;44.17;;
40871;SDS011;26591;43.264;26.940;2024-01-15T05:05:32;85.10;;;33.67;;
40871;SDS011;26591;43.264;26.940;2024-01-15T05:07:57;75.38;;;32.75;;
40871;SDS011;26591;43.264;26.940;2024-01-15T05:10:23;64.97;;;30.35;;
40871;SDS011;26591;43.264;26.940;2024-01-15T05:12:49;41.10;;;21.48;;
40871;SDS011;26591;43.264;26.940;2024-01-15T05:18:36;145.27;;;48.03;;
40871;SDS011;26591;43.264;26.940;2024-01-15T05:21:04;42.92;;;20.52;;
40871;SDS011;26591;43.264;26.940;2024-01-15T05:23:33;46.65;;;24.25;;
40871;SDS011;26591;43.264;26.940;2024-01-15T05:25:59;48.95;;;23.95;;
40871;SDS011;26591;43.264;26.940;2024-01-15T05:28:25;67.95;;;25.73;;
40871;SDS011;26591;43.264;26.940;2024-01-15T05:30:50;45.80;;;23.63;;
40871;SDS011;26591;43.264;26.940;2024-01-15T05:33:16;41.25;;;22.77;;
40871;SDS011;26591;43.264;26.940;2024-01-15T05:35:42;24.45;;;11.88;;
40871;SDS011;26591;43.264;26.940;2024-01-15T05:38:08;38.33;;;21.15;;
40871;SDS011;26591;43.264;26.940;2024-01-15T05:40:33;38.83;;;22.75;;
40871;SDS011;26591;43.264;26.940;2024-01-15T05:42:59;32.70;;;17.85;;
40871;SDS011;26591;43.264;26.940;2024-01-15T05:45:27;27.08;;;14.43;;
40871;SDS011;26591;43.264;26.940;2024-01-15T05:47:53;24.80;;;14.57;;
40871;SDS011;26591;43.264;26.940;2024-01-15T05:50:18;34.58;;;19.98;;
40871;SDS011;26591;43.264;26.940;2024-01-15T05:52:43;27.35;;;14.73;;
40871;SDS011;26591;43.264;26.940;2024-01-15T05:55:09;28.75;;;15.40;;
40871;SDS011;26591;43.264;26.940;2024-01-15T05:57:35;37.97;;;18.67;;
40871;SDS011;26591;43.264;26.940;2024-01-15T06:00:01;36.90;;;19.73;;
40871;SDS011;26591;43.264;26.940;2024-01-15T06:02:27;35.10;;;19.98;;
40871;SDS011;26591;43.264;26.940;2024-01-15T06:04:53;32.45;;;18.52;;
40871;SDS011;26591;43.264;26.940;2024-01-15T06:07:18;30.55;;;16.98;;
40871;SDS011;26591;43.264;26.940;2024-01-15T06:09:44;28.38;;;16.52;;
40871;SDS011;26591;43.264;26.940;2024-01-15T06:12:10;19.58;;;12.10;;
40871;SDS011;26591;43.264;26.940;2024-01-15T06:14:35;26.10;;;14.88;;
40871;SDS011;26591;43.264;26.940;2024-01-15T06:17:01;27.42;;;15.90;;
40871;SDS011;26591;43.264;26.940;2024-01-15T06:19:26;29.67;;;16.42;;
40871;SDS011;26591;43.264;26.940;2024-01-15T06:21:51;25.35;;;14.23;;
40871;SDS011;26591;43.264;26.940;2024-01-15T06:24:17;47.20;;;23.50;;
40871;SDS011;26591;43.264;26.940;2024-01-15T06:26:46;57.38;;;26.20;;
40871;SDS011;26591;43.264;26.940;2024-01-15T06:29:12;59.03;;;28.05;;
40871;SDS011;26591;43.264;26.940;2024-01-15T06:31:37;62.78;;;27.27;;
40871;SDS011;26591;43.264;26.940;2024-01-15T06:34:15;58.75;;;28.05;;
40871;SDS011;26591;43.264;26.940;2024-01-15T06:36:40;46.13;;;25.42;;
40871;SDS011;26591;43.264;26.940;2024-01-15T06:39:06;53.13;;;28.80;;
40871;SDS011;26591;43.264;26.940;2024-01-15T06:41:31;81.68;;;33.53;;
40871;SDS011;26591;43.264;26.940;2024-01-15T06:43:57;112.60;;;44.13;;
40871;SDS011;26591;43.264;26.940;2024-01-15T06:46:32;60.88;;;31.80;;
40871;SDS011;26591;43.264;26.940;2024-01-15T06:48:57;67.53;;;33.08;;
40871;SDS011;26591;43.264;26.940;2024-01-15T06:51:23;88.40;;;36.95;;
40871;SDS011;26591;43.264;26.940;2024-01-15T06:53:48;52.05;;;25.23;;
40871;SDS011;26591;43.264;26.940;2024-01-15T06:56:13;60.05;;;30.27;;
40871;SDS011;26591;43.264;26.940;2024-01-15T06:58:39;46.30;;;26.00;;
40871;SDS011;26591;43.264;26.940;2024-01-15T07:01:05;48.90;;;27.42;;
40871;SDS011;26591;43.264;26.940;2024-01-15T07:03:31;48.80;;;26.63;;
40871;SDS011;26591;43.264;26.940;2024-01-15T07:05:56;41.92;;;26.30;;
40871;SDS011;26591;43.264;26.940;2024-01-15T07:08:22;46.70;;;29.83;;
40871;SDS011;26591;43.264;26.940;2024-01-15T07:10:47;56.45;;;33.33;;
40871;SDS011;26591;43.264;26.940;2024-01-15T07:13:13;54.50;;;34.25;;
40871;SDS011;26591;43.264;26.940;2024-01-15T07:15:38;54.20;;;33.15;;
40871;SDS011;26591;43.264;26.940;2024-01-15T07:18:04;65.07;;;37.40;;
40871;SDS011;26591;43.264;26.940;2024-01-15T07:20:29;72.28;;;38.13;;
40871;SDS011;26591;43.264;26.940;2024-01-15T07:22:55;69.15;;;38.33;;
40871;SDS011;26591;43.264;26.940;2024-01-15T07:25:20;71.40;;;38.13;;
40871;SDS011;26591;43.264;26.940;2024-01-15T07:27:46;59.03;;;32.45;;
40871;SDS011;26591;43.264;26.940;2024-01-15T07:30:13;59.67;;;32.53;;
40871;SDS011;26591;43.264;26.940;2024-01-15T07:32:38;54.50;;;31.38;;
40871;SDS011;26591;43.264;26.940;2024-01-15T07:35:04;52.60;;;29.48;;
40871;SDS011;26591;43.264;26.940;2024-01-15T07:37:30;51.80;;;27.80;;
40871;SDS011;26591;43.264;26.940;2024-01-15T07:39:56;49.13;;;23.58;;
40871;SDS011;26591;43.264;26.940;2024-01-15T07:42:21;41.33;;;23.20;;
40871;SDS011;26591;43.264;26.940;2024-01-15T07:44:47;40.70;;;20.92;;
40871;SDS011;26591;43.264;26.940;2024-01-15T07:47:13;37.75;;;21.63;;
40871;SDS011;26591;43.264;26.940;2024-01-15T07:49:38;46.30;;;25.13;;
40871;SDS011;26591;43.264;26.940;2024-01-15T07:52:04;50.22;;;26.30;;
40871;SDS011;26591;43.264;26.940;2024-01-15T07:54:30;55.15;;;29.60;;
40871;SDS011;26591;43.264;26.940;2024-01-15T07:56:57;61.15;;;32.53;;
40871;SDS011;26591;43.264;26.940;2024-01-15T07:59:29;36.13;;;20.77;;
40871;SDS011;26591;43.264;26.940;2024-01-15T08:01:55;36.35;;;20.52;;
40871;SDS011;26591;43.264;26.940;2024-01-15T08:04:21;39.45;;;21.33;;
40871;SDS011;26591;43.264;26.940;2024-01-15T08:06:47;32.88;;;19.25;;
40871;SDS011;26591;43.264;26.940;2024-01-15T08:09:13;40.63;;;18.38;;
40871;SDS011;26591;43.264;26.940;2024-01-15T08:11:41;31.58;;;17.13;;
40871;SDS011;26591;43.264;26.940;2024-01-15T08:14:08;40.67;;;17.90;;
40871;SDS011;26591;43.264;26.940;2024-01-15T08:16:34;34.58;;;18.27;;
40871;SDS011;26591;43.264;26.940;2024-01-15T08:19:00;35.13;;;18.77;;
40871;SDS011;26591;43.264;26.940;2024-01-15T08:21:28;43.70;;;22.08;;
40871;SDS011;26591;43.264;26.940;2024-01-15T08:23:56;41.70;;;21.58;;
40871;SDS011;26591;43.264;26.940;2024-01-15T08:26:24;40.15;;;20.13;;
40871;SDS011;26591;43.264;26.940;2024-01-15T08:28:50;33.75;;;15.73;;
40871;SDS011;26591;43.264;26.940;2024-01-15T08:31:16;38.58;;;16.25;;
40871;SDS011;26591;43.264;26.940;2024-01-15T08:33:42;31.00;;;15.77;;
40871;SDS011;26591;43.264;26.940;2024-01-15T08:36:07;32.47;;;14.48;;
40871;SDS011;26591;43.264;26.940;2024-01-15T08:38:34;33.83;;;16.63;;
40871;SDS011;26591;43.264;26.940;2024-01-15T08:41:00;50.95;;;20.05;;
40871;SDS011;26591;43.264;26.940;2024-01-15T08:43:28;22.60;;;10.73;;
40871;SDS011;26591;43.264;26.940;2024-01-15T08:45:53;20.70;;;10.68;;
40871;SDS011;26591;43.264;26.940;2024-01-15T08:48:19;21.65;;;10.52;;
40871;SDS011;26591;43.264;26.940;2024-01-15T08:50:44;12.02;;;5.70;;
40871;SDS011;26591;43.264;26.940;2024-01-15T08:53:13;10.90;;;6.50;;
40871;SDS011;26591;43.264;26.940;2024-01-15T08:55:39;14.48;;;6.53;;
40871;SDS011;26591;43.264;26.940;2024-01-15T08:58:07;14.73;;;6.00;;
40871;SDS011;26591;43.264;26.940;2024-01-15T09:00:33;11.93;;;6.68;;
40871;SDS011;26591;43.264;26.940;2024-01-15T09:02:59;10.82;;;6.38;;
40871;SDS011;26591;43.264;26.940;2024-01-15T09:05:24;12.05;;;7.88;;
40871;SDS011;26591;43.264;26.940;2024-01-15T09:07:50;13.45;;;7.28;;
40871;SDS011;26591;43.264;26.940;2024-01-15T09:10:17;13.55;;;5.88;;
40871;SDS011;26591;43.264;26.940;2024-01-15T09:12:43;13.05;;;5.93;;
40871;SDS011;26591;43.264;26.940;2024-01-15T09:15:09;6.57;;;3.92;;
40871;SDS011;26591;43.264;26.940;2024-01-15T09:17:34;16.55;;;8.88;;
40871;SDS011;26591;43.264;26.940;2024-01-15T09:20:02;13.45;;;5.13;;
40871;SDS011;26591;43.264;26.940;2024-01-15T09:22:30;11.25;;;5.70;;
40871;SDS011;26591;43.264;26.940;2024-01-15T09:24:55;12.57;;;4.88;;
40871;SDS011;26591;43.264;26.940;2024-01-15T09:27:21;9.82;;;4.95;;
40871;SDS011;26591;43.264;26.940;2024-01-15T09:29:46;9.48;;;6.35;;
40871;SDS011;26591;43.264;26.940;2024-01-15T09:32:12;9.70;;;5.75;;
40871;SDS011;26591;43.264;26.940;2024-01-15T09:34:38;9.95;;;4.63;;
40871;SDS011;26591;43.264;26.940;2024-01-15T09:37:04;13.25;;;7.70;;
40871;SDS011;26591;43.264;26.940;2024-01-15T09:39:32;8.52;;;4.97;;
40871;SDS011;26591;43.264;26.940;2024-01-15T09:42:00;14.32;;;7.75;;
40871;SDS011;26591;43.264;26.940;2024-01-15T09:44:27;11.10;;;6.10;;
40871;SDS011;26591;43.264;26.940;2024-01-15T09:46:54;9.18;;;5.40;;
40871;SDS011;26591;43.264;26.940;2024-01-15T09:49:21;12.75;;;5.88;;
40871;SDS011;26591;43.264;26.940;2024-01-15T09:51:47;10.95;;;6.20;;
40871;SDS011;26591;43.264;26.940;2024-01-15T09:54:12;10.00;;;6.13;;
40871;SDS011;26591;43.264;26.940;2024-01-15T09:56:40;11.77;;;7.00;;
40871;SDS011;26591;43.264;26.940;2024-01-15T09:59:05;14.88;;;7.28;;
40871;SDS011;26591;43.264;26.940;2024-01-15T10:01:32;14.30;;;6.47;;
40871;SDS011;26591;43.264;26.940;2024-01-15T10:04:01;20.15;;;9.95;;
40871;SDS011;26591;43.264;26.940;2024-01-15T10:06:27;12.40;;;7.73;;
40871;SDS011;26591;43.264;26.940;2024-01-15T10:08:54;19.13;;;9.45;;
40871;SDS011;26591;43.264;26.940;2024-01-15T10:11:23;16.65;;;8.50;;
40871;SDS011;26591;43.264;26.940;2024-01-15T10:13:49;16.92;;;8.48;;
40871;SDS011;26591;43.264;26.940;2024-01-15T10:16:22;28.73;;;10.25;;
40871;SDS011;26591;43.264;26.940;2024-01-15T10:18:48;21.77;;;9.35;;
40871;SDS011;26591;43.264;26.940;2024-01-15T10:21:14;35.08;;;19.42;;
40871;SDS011;26591;43.264;26.940;2024-01-15T10:23:41;34.67;;;14.88;;
40871;SDS011;26591;43.264;26.940;2024-01-15T10:26:06;20.38;;;11.65;;
40871;SDS011;26591;43.264;26.940;2024-01-15T10:28:32;17.38;;;9.70;;
40871;SDS011;26591;43.264;26.940;2024-01-15T10:30:58;19.70;;;9.40;;
40871;SDS011;26591;43.264;26.940;2024-01-15T10:33:24;16.70;;;10.90;;
40871;SDS011;26591;43.264;26.940;2024-01-15T10:35:53;19.73;;;9.65;;
40871;SDS011;26591;43.264;26.940;2024-01-15T10:38:23;23.42;;;9.25;;
40871;SDS011;26591;43.264;26.940;2024-01-15T10:40:53;16.67;;;8.63;;
40871;SDS011;26591;43.264;26.940;2024-01-15T10:43:19;17.67;;;8.43;;
40871;SDS011;26591;43.264;26.940;2024-01-15T10:45:46;10.07;;;5.97;;
40871;SDS011;26591;43.264;26.940;2024-01-15T10:48:16;11.85;;;6.30;;
40871;SDS011;26591;43.264;26.940;2024-01-15T10:50:42;12.43;;;7.50;;
40871;SDS011;26591;43.264;26.940;2024-01-15T10:53:09;19.20;;;9.20;;
40871;SDS011;26591;43.264;26.940;2024-01-15T10:55:37;14.20;;;7.53;;
40871;SDS011;26591;43.264;26.940;2024-01-15T10:58:04;9.85;;;6.55;;
40871;SDS011;26591;43.264;26.940;2024-01-15T11:00:32;9.80;;;5.70;;
40871;SDS011;26591;43.264;26.940;2024-01-15T11:03:00;14.38;;;5.57;;
40871;SDS011;26591;43.264;26.940;2024-01-15T11:05:27;16.08;;;6.13;;
40871;SDS011;26591;43.264;26.940;2024-01-15T11:07:56;13.10;;;6.05;;
40871;SDS011;26591;43.264;26.940;2024-01-15T11:16:01;42.45;;;16.92;;
40871;SDS011;26591;43.264;26.940;2024-01-15T11:26:59;12.07;;;6.55;;
40871;SDS011;26591;43.264;26.940;2024-01-15T11:29:06;18.92;;;8.43;;
40871;SDS011;26591;43.264;26.940;2024-01-15T11:34:05;16.65;;;7.28;;
40871;SDS011;26591;43.264;26.940;2024-01-15T11:41:54;10.77;;;5.95;;
40871;SDS011;26591;43.264;26.940;2024-01-15T11:44:20;20.45;;;6.63;;
40871;SDS011;26591;43.264;26.940;2024-01-15T11:46:49;12.80;;;5.82;;
40871;SDS011;26591;43.264;26.940;2024-01-15T11:52:00;8.15;;;5.00;;
40871;SDS011;26591;43.264;26.940;2024-01-15T11:54:28;30.13;;;7.00;;
40871;SDS011;26591;43.264;26.940;2024-01-15T11:57:01;12.95;;;5.50;;
40871;SDS011;26591;43.264;26.940;2024-01-15T11:59:34;14.98;;;6.07;;
40871;SDS011;26591;43.264;26.940;2024-01-15T12:02:00;27.40;;;8.35;;
40871;SDS011;26591;43.264;26.940;2024-01-15T12:04:27;16.42;;;6.70;;
40871;SDS011;26591;43.264;26.940;2024-01-15T12:06:52;18.27;;;7.38;;
40871;SDS011;26591;43.264;26.940;2024-01-15T12:09:21;10.13;;;5.43;;
40871;SDS011;26591;43.264;26.940;2024-01-15T12:11:51;16.67;;;6.50;;
40871;SDS011;26591;43.264;26.940;2024-01-15T12:14:24;11.02;;;6.10;;
40871;SDS011;26591;43.264;26.940;2024-01-15T12:16:49;13.88;;;5.32;;
40871;SDS011;26591;43.264;26.940;2024-01-15T12:19:15;19.77;;;6.35;;
40871;SDS011;26591;43.264;26.940;2024-01-15T12:21:41;25.80;;;11.82;;
40871;SDS011;26591;43.264;26.940;2024-01-15T12:24:19;32.63;;;14.60;;
40871;SDS011;26591;43.264;26.940;2024-01-15T12:26:44;13.93;;;7.25;;
40871;SDS011;26591;43.264;26.940;2024-01-15T12:29:10;24.90;;;11.18;;
40871;SDS011;26591;43.264;26.940;2024-01-15T12:31:36;40.85;;;13.52;;
40871;SDS011;26591;43.264;26.940;2024-01-15T12:34:02;22.05;;;11.00;;
40871;SDS011;26591;43.264;26.940;2024-01-15T12:36:30;21.65;;;12.07;;
40871;SDS011;26591;43.264;26.940;2024-01-15T12:38:59;15.55;;;7.45;;
40871;SDS011;26591;43.264;26.940;2024-01-15T12:41:25;10.60;;;5.82;;
40871;SDS011;26591;43.264;26.940;2024-01-15T12:43:50;15.25;;;8.70;;
40871;SDS011;26591;43.264;26.940;2024-01-15T12:46:16;17.92;;;8.77;;
40871;SDS011;26591;43.264;26.940;2024-01-15T12:48:41;13.85;;;8.98;;
40871;SDS011;26591;43.264;26.940;2024-01-15T12:51:08;24.52;;;10.75;;
40871;SDS011;26591;43.264;26.940;2024-01-15T12:53:33;15.13;;;8.98;;
40871;SDS011;26591;43.264;26.940;2024-01-15T12:55:59;12.45;;;8.10;;
40871;SDS011;26591;43.264;26.940;2024-01-15T12:58:25;16.77;;;8.15;;
40871;SDS011;26591;43.264;26.940;2024-01-15T13:00:50;17.48;;;9.23;;
40871;SDS011;26591;43.264;26.940;2024-01-15T13:03:16;11.40;;;6.82;;
40871;SDS011;26591;43.264;26.940;2024-01-15T13:05:42;11.77;;;6.75;;
40871;SDS011;26591;43.264;26.940;2024-01-15T13:08:07;11.27;;;7.63;;
40871;SDS011;26591;43.264;26.940;2024-01-15T13:10:32;12.30;;;7.57;;
40871;SDS011;26591;43.264;26.940;2024-01-15T13:13:00;18.88;;;8.85;;
40871;SDS011;26591;43.264;26.940;2024-01-15T13:18:23;14.20;;;8.57;;
40871;SDS011;26591;43.264;26.940;2024-01-15T13:20:49;17.80;;;8.65;;
40871;SDS011;26591;43.264;26.940;2024-01-15T13:23:14;19.23;;;11.63;;
40871;SDS011;26591;43.264;26.940;2024-01-15T13:25:40;18.25;;;11.70;;
40871;SDS011;26591;43.264;26.940;2024-01-15T13:28:12;13.98;;;9.90;;
40871;SDS011;26591;43.264;26.940;2024-01-15T13:30:38;15.07;;;8.32;;
40871;SDS011;26591;43.264;26.940;2024-01-15T13:33:03;9.35;;;7.65;;
40871;SDS011;26591;43.264;26.940;2024-01-15T13:35:29;12.85;;;8.05;;
40871;SDS011;26591;43.264;26.940;2024-01-15T13:37:55;14.65;;;8.65;;
40871;SDS011;26591;43.264;26.940;2024-01-15T13:40:21;15.70;;;8.88;;
40871;SDS011;26591;43.264;26.940;2024-01-15T13:42:47;18.02;;;11.35;;
40871;SDS011;26591;43.264;26.940;2024-01-15T13:45:13;20.83;;;11.55;;
40871;SDS011;26591;43.264;26.940;2024-01-15T13:47:42;16.20;;;9.40;;
40871;SDS011;26591;43.264;26.940;2024-01-15T13:53:20;20.33;;;10.02;;
40871;SDS011;26591;43.264;26.940;2024-01-15T13:55:46;68.47;;;48.33;;
40871;SDS011;26591;43.264;26.940;2024-01-15T13:58:12;21.02;;;15.60;;
40871;SDS011;26591;43.264;26.940;2024-01-15T14:00:38;26.63;;;15.43;;
40871;SDS011;26591;43.264;26.940;2024-01-15T14:03:04;19.13;;;10.20;;
40871;SDS011;26591;43.264;26.940;2024-01-15T14:05:30;20.58;;;11.27;;
40871;SDS011;26591;43.264;26.940;2024-01-15T14:07:55;20.85;;;9.02;;
40871;SDS011;26591;43.264;26.940;2024-01-15T14:10:21;10.15;;;6.68;;
40871;SDS011;26591;43.264;26.940;2024-01-15T14:12:47;12.20;;;7.05;;
40871;SDS011;26591;43.264;26.940;2024-01-15T14:15:12;12.50;;;7.82;;
40871;SDS011;26591;43.264;26.940;2024-01-15T14:17:38;17.70;;;8.63;;
40871;SDS011;26591;43.264;26.940;2024-01-15T14:20:04;15.38;;;7.60;;
40871;SDS011;26591;43.264;26.940;2024-01-15T14:22:30;9.25;;;6.45;;
40871;SDS011;26591;43.264;26.940;2024-01-15T14:24:56;18.38;;;8.13;;
40871;SDS011;26591;43.264;26.940;2024-01-15T14:27:25;14.40;;;8.40;;
40871;SDS011;26591;43.264;26.940;2024-01-15T14:29:51;14.10;;;7.40;;
40871;SDS011;26591;43.264;26.940;2024-01-15T14:32:17;12.43;;;7.60;;
40871;SDS011;26591;43.264;26.940;2024-01-15T14:34:42;12.57;;;8.80;;
40871;SDS011;26591;43.264;26.940;2024-01-15T14:37:10;15.80;;;8.40;;
40871;SDS011;26591;43.264;26.940;2024-01-15T14:39:36;18.45;;;9.65;;
40871;SDS011;26591;43.264;26.940;2024-01-15T14:42:04;32.10;;;15.85;;
40871;SDS011;26591;43.264;26.940;2024-01-15T14:44:29;19.17;;;7.93;;
40871;SDS011;26591;43.264;26.940;2024-01-15T14:46:54;18.77;;;9.90;;
40871;SDS011;26591;43.264;26.940;2024-01-15T14:49:21;28.90;;;12.68;;
40871;SDS011;26591;43.264;26.940;2024-01-15T14:51:55;25.67;;;16.58;;
40871;SDS011;26591;43.264;26.940;2024-01-15T14:54:21;37.88;;;18.80;;
40871;SDS011;26591;43.264;26.940;2024-01-15T14:56:47;29.73;;;14.30;;
40871;SDS011;26591;43.264;26.940;2024-01-15T14:59:12;25.40;;;13.30;;